Time;durP1;ratioP1;P1;durP2;ratioP2;P2;SDS_P1;SDS_P2;PMS_P1;PMS_P2;Temp;Humidity;BMP_temperature;BMP_pressure;BME280_temperature;BME280_humidity;BME280_pressure;Samples;Min_cycle;Max_cycle;Signal;HPM_P1;HPM_P2
2022/05/16 00:02:15;;;;;;;18.25;5.70;;;13.50;99.90;;;;;;5000455;28;20049;-69
2022/05/16 00:04:44;;;;;;;15.95;5.35;;;13.50;99.90;;;;;;4911701;28;226660;-67
2022/05/16 00:07:11;;;;;;;15.80;5.18;;;13.50;99.90;;;;;;4990933;28;20521;-66
2022/05/16 00:09:38;;;;;;;19.70;5.40;;;13.40;99.90;;;;;;4920266;28;217812;-68
2022/05/16 00:12:05;;;;;;;12.70;4.22;;;13.40;99.90;;;;;;4997631;28;20046;-68
2022/05/16 00:14:32;;;;;;;12.80;4.30;;;13.40;99.90;;;;;;4959325;28;220387;-68
2022/05/16 00:16:58;;;;;;;13.65;5.07;;;13.40;99.90;;;;;;5013596;28;20054;-68
2022/05/16 00:19:24;;;;;;;13.27;4.85;;;13.40;99.90;;;;;;4943483;28;218230;-69
2022/05/16 00:21:50;;;;;;;17.08;4.90;;;13.40;99.90;;;;;;5005160;28;20057;-69
2022/05/16 00:24:18;;;;;;;14.30;5.03;;;13.30;99.90;;;;;;4957486;28;208988;-68
2022/05/16 00:26:44;;;;;;;13.52;4.82;;;13.30;99.90;;;;;;4984911;28;20057;-69
2022/05/16 00:29:10;;;;;;;14.40;4.60;;;13.30;99.90;;;;;;4938338;28;209780;-68
2022/05/16 00:31:37;;;;;;;13.93;4.75;;;13.30;99.90;;;;;;5003821;28;20501;-66
2022/05/16 00:34:03;;;;;;;16.70;4.70;;;13.20;99.90;;;;;;4947331;28;220029;-69
2022/05/16 00:36:29;;;;;;;14.57;4.88;;;13.20;99.90;;;;;;4988584;28;20053;-68
2022/05/16 00:38:55;;;;;;;15.13;5.47;;;13.20;99.90;;;;;;4968090;28;209155;-69
2022/05/16 00:41:21;;;;;;;14.60;4.93;;;13.20;99.90;;;;;;4973709;28;234662;-69
2022/05/16 00:43:49;;;;;;;14.95;4.80;;;13.20;99.90;;;;;;4957534;28;216674;-68
2022/05/16 00:46:17;;;;;;;16.35;4.93;;;13.20;99.90;;;;;;4973782;28;188523;-68
2022/05/16 00:48:43;;;;;;;14.75;4.90;;;13.10;99.90;;;;;;4937379;28;206653;-69
2022/05/16 00:51:18;;;;;;;15.35;5.10;;;13.10;99.90;;;;;;4989567;28;251823;-68
2022/05/16 00:53:46;;;;;;;12.15;4.55;;;13.10;99.90;;;;;;4980177;28;206610;-68
2022/05/16 00:56:14;;;;;;;13.63;4.65;;;13.10;99.90;;;;;;4989072;28;158316;-69
2022/05/16 00:58:41;;;;;;;15.43;4.75;;;13.10;99.90;;;;;;4961217;28;211864;-67
2022/05/16 01:06:42;;;;;;;13.35;4.32;;;13.00;99.90;;;;;;4986699;28;88717;-68
2022/05/16 01:09:08;;;;;;;13.52;4.53;;;13.00;99.90;;;;;;4943992;28;205746;-68
2022/05/16 01:11:37;;;;;;;13.23;4.78;;;13.00;99.90;;;;;;4992432;28;20049;-66
2022/05/16 01:14:04;;;;;;;12.20;4.40;;;13.00;99.90;;;;;;4940689;28;206497;-66
2022/05/16 01:16:30;;;;;;;13.20;4.45;;;12.90;99.90;;;;;;5009197;28;20056;-68
2022/05/16 01:18:56;;;;;;;12.13;4.60;;;12.90;99.90;;;;;;4954240;28;219265;-68
2022/05/16 01:21:32;;;;;;;11.80;4.55;;;12.90;99.90;;;;;;4983344;28;248281;-68
2022/05/16 01:24:03;;;;;;;11.35;4.07;;;12.90;99.90;;;;;;4951544;28;218902;-68
2022/05/16 01:26:30;;;;;;;12.88;4.63;;;12.90;99.90;;;;;;4992582;28;20423;-68
2022/05/16 01:28:56;;;;;;;15.82;4.25;;;12.80;99.90;;;;;;4970842;28;212703;-68
2022/05/16 01:31:23;;;;;;;12.43;4.18;;;12.80;99.90;;;;;;4973189;28;20046;-68
2022/05/16 01:33:50;;;;;;;13.20;3.75;;;12.80;99.90;;;;;;4957124;28;209125;-73
2022/05/16 01:36:16;;;;;;;13.68;4.30;;;12.70;99.90;;;;;;4983841;28;115880;-70
2022/05/16 01:38:42;;;;;;;13.23;4.70;;;12.80;99.90;;;;;;4961483;28;210554;-70
2022/05/16 01:41:15;;;;;;;10.48;4.05;;;12.70;99.90;;;;;;4990626;28;238966;-69
2022/05/16 01:43:44;;;;;;;12.40;4.25;;;12.70;99.90;;;;;;4955846;28;219782;-69
2022/05/16 01:46:12;;;;;;;14.25;4.05;;;12.70;99.90;;;;;;5003629;28;58144;-69
2022/05/16 01:48:38;;;;;;;12.40;4.07;;;12.70;99.90;;;;;;4959872;28;218389;-69
2022/05/16 01:51:09;;;;;;;11.32;4.22;;;12.70;99.90;;;;;;4974622;28;178225;-68
2022/05/16 01:53:36;;;;;;;;;;;12.70;99.90;;;;;;4958038;28;213111;-68
2022/05/16 01:56:02;;;;;;;13.57;4.00;;;12.60;99.90;;;;;;4974101;28;55943;-69
2022/05/16 01:58:28;;;;;;;13.07;4.05;;;12.60;99.90;;;;;;4955652;28;210635;-69
2022/05/16 02:00:55;;;;;;;12.60;3.92;;;12.60;99.90;;;;;;5007093;28;26943;-70
2022/05/16 02:03:21;;;;;;;11.13;4.43;;;12.60;99.90;;;;;;4977452;28;213897;-65
2022/05/16 02:05:48;;;;;;;12.13;3.97;;;12.60;99.90;;;;;;4968022;28;122589;-70
2022/05/16 02:08:15;;;;;;;12.38;3.88;;;12.60;99.90;;;;;;5006131;28;20517;-69
2022/05/16 02:10:43;;;;;;;13.93;4.05;;;12.50;99.90;;;;;;4933459;28;206332;-68
2022/05/16 02:13:10;;;;;;;11.75;3.67;;;12.50;99.90;;;;;;5015800;28;20420;-69
2022/05/16 02:15:38;;;;;;;10.93;3.47;;;12.50;99.90;;;;;;4934545;28;243336;-69
2022/05/16 02:18:06;;;;;;;11.18;3.60;;;12.50;99.90;;;;;;5008072;28;20077;-69
2022/05/16 02:20:32;;;;;;;9.98;3.80;;;12.50;99.90;;;;;;4925379;28;210763;-70
2022/05/16 02:25:47;;;;;;;11.73;3.40;;;12.50;99.90;;;;;;4924854;28;231143;-71
2022/05/16 02:28:16;;;;;;;10.48;3.78;;;12.50;99.90;;;;;;4981009;28;20046;-70
2022/05/16 02:30:43;;;;;;;10.90;3.75;;;12.50;99.90;;;;;;4940379;28;208207;-70
2022/05/16 02:33:11;;;;;;;12.70;3.50;;;12.40;99.90;;;;;;4999709;28;20471;-69
2022/05/16 02:35:37;;;;;;;11.35;3.38;;;12.40;99.90;;;;;;4955725;28;211263;-69
2022/05/16 02:38:05;;;;;;;12.02;3.40;;;12.40;99.90;;;;;;5002767;28;20061;-69
2022/05/16 02:40:32;;;;;;;13.93;3.53;;;12.40;99.90;;;;;;4925403;28;207012;-73
2022/05/16 02:42:59;;;;;;;12.93;3.13;;;12.40;99.90;;;;;;5001491;28;20073;-69
2022/05/16 02:45:27;;;;;;;10.88;3.50;;;12.30;99.90;;;;;;4948234;28;214270;-70
2022/05/16 02:47:53;;;;;;;10.57;3.08;;;12.30;99.90;;;;;;5005960;28;20060;-71
2022/05/16 02:50:23;;;;;;;11.38;3.42;;;12.30;99.90;;;;;;4931347;28;246998;-69
2022/05/16 02:52:53;;;;;;;12.73;3.45;;;12.30;99.90;;;;;;5008194;28;20053;-71
2022/05/16 02:55:20;;;;;;;9.13;3.20;;;12.30;99.90;;;;;;4937316;28;219743;-71
2022/05/16 02:57:47;;;;;;;10.93;3.20;;;12.20;99.90;;;;;;4985654;28;20069;-71
2022/05/16 03:00:16;;;;;;;11.10;3.22;;;12.20;99.90;;;;;;4950947;28;210382;-70
2022/05/16 03:02:42;;;;;;;10.75;3.47;;;12.20;99.90;;;;;;5008243;28;20053;-69
2022/05/16 03:05:10;;;;;;;9.18;2.97;;;12.20;99.90;;;;;;4928078;28;225487;-69
2022/05/16 03:07:36;;;;;;;11.43;3.17;;;12.20;99.90;;;;;;4993587;28;20061;-69
2022/05/16 03:10:04;;;;;;;11.18;3.63;;;12.20;99.90;;;;;;4920379;28;207197;-69
2022/05/16 03:12:30;;;;;;;9.90;3.25;;;12.10;99.90;;;;;;4992537;28;20057;-69
2022/05/16 03:14:57;;;;;;;9.38;2.90;;;12.10;99.90;;;;;;4949298;28;209337;-69
2022/05/16 03:17:23;;;;;;;11.15;3.38;;;12.10;99.90;;;;;;4982341;28;20062;-70
2022/05/16 03:19:50;;;;;;;10.25;3.15;;;12.10;99.90;;;;;;4933037;28;243913;-70
2022/05/16 03:22:17;;;;;;;10.02;3.17;;;12.10;99.90;;;;;;4981851;28;20050;-71
2022/05/16 03:24:43;;;;;;;10.80;2.92;;;12.10;99.90;;;;;;4951969;28;210519;-69
2022/05/16 03:27:10;;;;;;;8.75;3.00;;;12.00;99.90;;;;;;5009857;28;20053;-68
2022/05/16 03:29:36;;;;;;;13.00;2.88;;;12.00;99.90;;;;;;4943990;28;236020;-70
2022/05/16 03:32:03;;;;;;;10.68;3.28;;;12.00;99.90;;;;;;5011946;28;20403;-68
2022/05/16 03:34:29;;;;;;;12.85;3.03;;;12.00;99.90;;;;;;4945502;28;252523;-70
2022/05/16 03:36:55;;;;;;;11.10;2.88;;;11.90;99.90;;;;;;4991560;28;20068;-72
2022/05/16 03:42:06;;;;;;;11.07;2.90;;;11.90;99.90;;;;;;5001425;28;20060;-70
2022/05/16 03:44:32;;;;;;;10.63;3.15;;;11.90;99.90;;;;;;4918073;28;212365;-71
2022/05/16 03:46:59;;;;;;;11.23;3.05;;;11.80;99.90;;;;;;5007626;28;20056;-68
2022/05/16 03:49:25;;;;;;;8.73;2.80;;;11.80;99.90;;;;;;4942045;28;207750;-68
2022/05/16 03:51:51;;;;;;;11.95;2.90;;;11.80;99.90;;;;;;5007748;28;20748;-70
2022/05/16 03:54:19;;;;;;;9.00;2.75;;;11.80;99.90;;;;;;4949757;28;235775;-69
2022/05/16 03:56:46;;;;;;;9.82;2.70;;;11.80;99.90;;;;;;5016779;28;20050;-70
2022/05/16 03:59:12;;;;;;;8.48;2.50;;;11.80;99.90;;;;;;4942557;28;224221;-69
2022/05/16 04:01:39;;;;;;;10.98;3.20;;;11.80;99.90;;;;;;4997207;28;20061;-69
2022/05/16 04:04:05;;;;;;;11.25;3.03;;;11.80;99.90;;;;;;4929619;28;210048;-70
2022/05/16 04:06:34;;;;;;;8.95;2.72;;;11.80;99.90;;;;;;5002516;28;20438;-69
2022/05/16 04:09:00;;;;;;;10.38;2.90;;;11.80;99.90;;;;;;4942031;28;249261;-72
2022/05/16 04:11:27;;;;;;;9.20;2.90;;;11.80;99.90;;;;;;5019774;28;20061;-72
2022/05/16 04:13:53;;;;;;;11.45;3.47;;;11.80;99.90;;;;;;4957097;28;208201;-70
2022/05/16 04:16:19;;;;;;;14.43;2.90;;;11.80;99.90;;;;;;4973725;28;199615;-69
2022/05/16 04:18:46;;;;;;;9.85;2.53;;;11.90;99.90;;;;;;4959460;28;210050;-69
2022/05/16 04:21:12;;;;;;;11.27;2.75;;;11.90;99.90;;;;;;4988187;28;70287;-69
2022/05/16 04:23:39;;;;;;;8.05;2.58;;;12.00;99.90;;;;;;4970579;28;218251;-69
2022/05/16 04:26:05;;;;;;;10.85;2.70;;;12.00;99.90;;;;;;4978673;28;214776;-71
2022/05/16 04:28:31;;;;;;;12.02;2.95;;;12.00;99.90;;;;;;4955723;28;209455;-69
2022/05/16 04:30:58;;;;;;;10.25;3.20;;;12.10;99.90;;;;;;4991172;28;241667;-70
2022/05/16 04:33:25;;;;;;;10.30;2.70;;;12.10;99.90;;;;;;4964390;28;225291;-67
2022/05/16 04:35:51;;;;;;;11.35;2.90;;;12.10;99.90;;;;;;4985232;28;167782;-69
2022/05/16 04:38:18;;;;;;;10.30;2.90;;;12.10;99.90;;;;;;5005743;28;20045;-69
2022/05/16 04:43:28;;;;;;;9.15;2.50;;;12.10;99.90;;;;;;4961953;28;213863;-70
2022/05/16 04:45:54;;;;;;;9.18;2.72;;;12.10;99.90;;;;;;4990508;28;114880;-69
2022/05/16 04:48:20;;;;;;;11.73;2.92;;;12.10;99.90;;;;;;4988260;28;216729;-68
2022/05/16 04:50:47;;;;;;;8.80;2.72;;;12.20;99.90;;;;;;4964290;28;210255;-71
2022/05/16 04:53:13;;;;;;;13.27;3.15;;;12.20;99.90;;;;;;5007250;28;20057;-68
2022/05/16 04:55:39;;;;;;;10.70;3.00;;;12.20;99.90;;;;;;4938988;28;216518;-70
2022/05/16 04:58:05;;;;;;;9.68;2.85;;;12.20;99.90;;;;;;5017129;28;20057;-69
2022/05/16 05:00:31;;;;;;;12.93;3.17;;;12.30;99.90;;;;;;4937985;28;216013;-69
2022/05/16 05:02:58;;;;;;;13.18;3.10;;;12.30;99.90;;;;;;5002075;28;20434;-69
2022/05/16 05:05:24;;;;;;;13.43;3.20;;;12.30;99.90;;;;;;4936567;28;211824;-70
2022/05/16 05:07:50;;;;;;;11.27;3.00;;;12.40;99.90;;;;;;5009486;28;20057;-71
2022/05/16 05:15:53;;;;;;;11.93;3.22;;;12.60;99.90;;;;;;4941616;28;209415;-71
2022/05/16 05:18:19;;;;;;;10.52;3.47;;;12.80;99.90;;;;;;4974156;28;211604;-69
2022/05/16 05:20:45;;;;;;;9.57;3.40;;;12.90;99.90;;;;;;4933202;28;209808;-69
2022/05/16 05:23:11;;;;;;;10.68;3.03;;;13.10;99.90;;;;;;4988574;28;20488;-69
2022/05/16 05:25:38;;;;;;;11.50;3.03;;;13.10;99.90;;;;;;4945238;28;208838;-70
2022/05/16 05:28:04;;;;;;;12.25;2.95;;;13.20;99.90;;;;;;5007955;28;20056;-69
2022/05/16 05:30:32;;;;;;;11.32;3.08;;;13.30;99.90;;;;;;4944210;28;210800;-71
2022/05/16 05:32:58;;;;;;;13.05;3.15;;;13.30;99.90;;;;;;5000240;28;20050;-69
2022/05/16 05:35:25;;;;;;;15.07;3.42;;;13.40;99.90;;;;;;4943197;28;215232;-71
2022/05/16 05:37:55;;;;;;;12.25;3.20;;;13.40;99.90;;;;;;4995350;28;20050;-70
2022/05/16 05:40:21;;;;;;;9.98;2.88;;;13.40;99.90;;;;;;4928320;28;210486;-72
2022/05/16 05:42:48;;;;;;;12.32;3.15;;;13.40;99.90;;;;;;5003983;28;20518;-69
2022/05/16 05:45:14;;;;;;;11.88;3.40;;;13.50;99.90;;;;;;4926580;28;211988;-69
2022/05/16 05:47:40;;;;;;;11.00;3.03;;;13.50;99.90;;;;;;5009750;28;20054;-70
2022/05/16 05:50:08;;;;;;;12.02;3.30;;;13.70;99.90;;;;;;4933078;28;250476;-72
2022/05/16 05:52:35;;;;;;;9.25;2.80;;;13.80;99.90;;;;;;5008912;28;20399;-70
2022/05/16 05:55:01;;;;;;;10.95;3.40;;;14.10;99.90;;;;;;4954646;28;217616;-67
2022/05/16 05:57:27;;;;;;;11.68;3.25;;;14.40;99.90;;;;;;5001799;28;20517;-69
2022/05/16 05:59:56;;;;;;;11.75;3.08;;;14.70;99.90;;;;;;4955179;28;214993;-69
2022/05/16 06:02:23;;;;;;;9.90;3.10;;;15.00;99.90;;;;;;5007972;28;20494;-69
2022/05/16 06:04:49;;;;;;;11.23;2.97;;;15.20;99.90;;;;;;4924498;28;248823;-72
2022/05/16 06:07:16;;;;;;;12.70;2.97;;;15.40;99.90;;;;;;5001130;28;20487;-69
2022/05/16 06:09:42;;;;;;;11.98;3.10;;;15.70;99.90;;;;;;4942561;28;213710;-70
2022/05/16 06:12:09;;;;;;;11.93;2.90;;;15.80;99.90;;;;;;4996237;28;20050;-70
2022/05/16 06:14:36;;;;;;;10.25;2.97;;;16.10;99.90;;;;;;4938524;28;243403;-69
2022/05/16 06:17:02;;;;;;;11.38;2.97;;;16.30;99.90;;;;;;5001926;28;20072;-77
2022/05/16 06:19:31;;;;;;;10.57;2.95;;;16.50;99.90;;;;;;4944738;28;215393;-70
2022/05/16 06:21:57;;;;;;;12.32;3.03;;;16.70;99.90;;;;;;5003597;28;20479;-69
2022/05/16 06:27:08;;;;;;;10.00;2.80;;;17.10;99.90;;;;;;5004590;28;20217;-72
2022/05/16 06:29:35;;;;;;;14.85;3.33;;;17.50;99.90;;;;;;4952049;28;210098;-70
2022/05/16 06:32:01;;;;;;;9.73;2.80;;;17.70;99.90;;;;;;4997364;28;20058;-69
2022/05/16 06:34:27;;;;;;;10.10;3.15;;;18.00;99.90;;;;;;4932912;28;231818;-69
2022/05/16 06:36:53;;;;;;;10.85;3.10;;;18.20;99.90;;;;;;4994237;28;20053;-71
2022/05/16 06:39:19;;;;;;;12.63;2.95;;;18.50;99.90;;;;;;4939075;28;227596;-69
2022/05/16 06:41:45;;;;;;;10.88;2.88;;;18.60;99.90;;;;;;5006491;28;20050;-69
2022/05/16 06:44:14;;;;;;;12.00;2.90;;;18.80;99.90;;;;;;4946974;28;214169;-69
2022/05/16 06:46:41;;;;;;;14.13;3.28;;;19.00;99.60;;;;;;5006243;28;20084;-73
2022/05/16 06:49:08;;;;;;;10.83;3.00;;;19.10;99.60;;;;;;4947891;28;203733;-71
2022/05/16 06:51:34;;;;;;;11.40;3.17;;;19.30;98.90;;;;;;5007221;28;20058;-70
2022/05/16 06:54:00;;;;;;;12.70;3.20;;;19.50;99.00;;;;;;4949346;28;212980;-69
2022/05/16 06:56:26;;;;;;;14.65;3.08;;;19.60;98.30;;;;;;5008791;28;20057;-71
2022/05/16 06:58:52;;;;;;;10.73;3.05;;;19.90;98.20;;;;;;4960373;28;213218;-71
2022/05/16 07:01:18;;;;;;;11.95;2.70;;;20.00;97.40;;;;;;4999815;28;235936;-73
2022/05/16 07:03:45;;;;;;;12.13;2.95;;;20.30;97.10;;;;;;4955493;28;211864;-73
2022/05/16 07:06:14;;;;;;;13.93;2.70;;;20.50;97.10;;;;;;4965779;28;185471;-73
2022/05/16 07:08:41;;;;;;;12.38;2.72;;;20.60;96.00;;;;;;4955825;28;220478;-71
2022/05/16 07:11:08;;;;;;;11.23;3.15;;;20.70;95.70;;;;;;4975677;28;280079;-71
2022/05/16 07:13:34;;;;;;;10.98;3.00;;;20.80;95.40;;;;;;4961568;28;211682;-69
2022/05/16 07:16:01;;;;;;;11.00;3.03;;;20.90;95.30;;;;;;4985181;28;70607;-70
2022/05/16 07:18:28;;;;;;;12.05;2.80;;;20.90;94.60;;;;;;4962951;28;211718;-73
2022/05/16 07:20:55;;;;;;;11.73;2.75;;;21.00;94.10;;;;;;4987410;28;96702;-69
2022/05/16 07:23:22;;;;;;;10.75;2.80;;;21.20;94.30;;;;;;4986817;28;216236;-67
2022/05/16 07:28:33;;;;;;;11.20;2.80;;;21.50;94.30;;;;;;4956045;28;216369;-68
2022/05/16 07:30:59;;;;;;;13.15;3.25;;;21.60;93.30;;;;;;4992800;28;89625;-69
2022/05/16 07:33:26;;;;;;;12.48;3.28;;;21.80;92.70;;;;;;4980972;22;219747;-82
2022/05/16 07:35:52;;;;;;;12.00;2.90;;;22.00;92.30;;;;;;4992215;28;131786;-81
2022/05/16 07:38:20;;;;;;;12.18;2.92;;;22.00;91.60;;;;;;5009408;28;211340;-81
2022/05/16 07:40:46;;;;;;;11.32;2.80;;;22.30;91.10;;;;;;4946147;28;158534;-81
2022/05/16 07:43:12;;;;;;;11.18;3.00;;;22.50;91.30;;;;;;5012190;28;20479;-82
2022/05/16 07:45:38;;;;;;;12.60;2.88;;;22.70;90.40;;;;;;4959779;22;210136;-70
2022/05/16 07:48:05;;;;;;;12.18;2.90;;;22.90;90.00;;;;;;5004191;28;20057;-71
2022/05/16 07:50:33;;;;;;;11.73;2.70;;;23.00;88.80;;;;;;4929325;28;230182;-70
2022/05/16 07:52:59;;;;;;;10.30;2.60;;;23.10;86.30;;;;;;4985497;28;20042;-71
2022/05/16 07:55:26;;;;;;;10.18;2.55;;;23.30;86.60;;;;;;4932685;28;210243;-71
2022/05/16 07:57:53;;;;;;;12.07;3.10;;;23.60;86.70;;;;;;5008930;28;20068;-70
2022/05/16 08:00:21;;;;;;;12.75;2.92;;;23.80;84.90;;;;;;4928457;28;210758;-70
2022/05/16 08:02:47;;;;;;;12.05;3.05;;;23.90;82.70;;;;;;5000604;28;20053;-70
2022/05/16 08:05:15;;;;;;;11.75;2.78;;;24.10;80.80;;;;;;4927336;28;215048;-72
2022/05/16 08:10:30;;;;;;;13.80;3.00;;;24.40;75.60;;;;;;4938832;28;213658;-73
2022/05/16 08:13:02;;;;;;;11.90;2.85;;;24.50;76.00;;;;;;5006247;28;20045;-71
2022/05/16 08:15:30;;;;;;;9.85;2.60;;;24.70;74.90;;;;;;4929476;28;209828;-73
2022/05/16 08:17:57;;;;;;;15.30;2.95;;;24.80;73.40;;;;;;5006984;28;20049;-70
2022/05/16 08:20:24;;;;;;;14.50;2.90;;;25.10;73.50;;;;;;4930477;28;239529;-71
2022/05/16 08:22:51;;;;;;;10.27;2.67;;;25.50;71.50;;;;;;5007067;28;20050;-69
2022/05/16 08:25:17;;;;;;;11.93;2.90;;;25.80;68.30;;;;;;4939117;28;217229;-76
2022/05/16 08:27:44;;;;;;;14.98;2.83;;;26.20;69.50;;;;;;4983157;28;20064;-70
2022/05/16 08:30:11;;;;;;;12.63;2.60;;;26.50;64.70;;;;;;4917218;28;213711;-71
2022/05/16 08:32:38;;;;;;;11.45;2.67;;;26.60;64.80;;;;;;5007021;28;20053;-70
2022/05/16 08:35:07;;;;;;;11.48;2.75;;;26.80;63.10;;;;;;4945049;28;224893;-70
2022/05/16 08:40:21;;;;;;;11.05;2.67;;;27.50;64.20;;;;;;4945771;28;217410;-71
2022/05/16 08:43:01;;;;;;;13.25;2.97;;;28.00;63.10;;;;;;5004250;28;20053;-70
2022/05/16 08:45:34;;;;;;;9.57;2.67;;;28.30;56.50;;;;;;4931682;28;179246;-73
2022/05/16 08:48:22;;;;;;;13.65;2.67;;;28.20;58.00;;;;;;5013753;28;20380;-71
2022/05/16 08:50:53;;;;;;;11.98;2.90;;;28.30;54.70;;;;;;4969668;28;206202;-70
2022/05/16 08:53:39;;;;;;;12.10;2.80;;;28.30;56.90;;;;;;4995734;28;218297;-72
2022/05/16 08:56:10;;;;;;;9.20;2.45;;;28.40;55.90;;;;;;4975517;28;126922;-73
2022/05/16 08:59:01;;;;;;;9.90;2.50;;;28.50;54.60;;;;;;4963838;28;211055;-71
2022/05/16 09:01:34;;;;;;;11.82;2.65;;;28.60;54.30;;;;;;4977792;28;20129;-75
2022/05/16 09:04:02;;;;;;;11.98;2.80;;;28.50;54.40;;;;;;4935951;28;214544;-71
2022/05/16 09:07:30;;;;;;;10.50;2.42;;;28.50;53.50;;;;;;5010071;28;20431;-71
2022/05/16 09:10:08;;;;;;;11.43;2.50;;;28.80;53.60;;;;;;4886815;28;210861;-71
2022/05/16 09:12:40;;;;;;;13.70;2.55;;;29.00;53.10;;;;;;4959023;28;20089;-70
2022/05/16 09:15:25;;;;;;;11.98;2.85;;;29.30;52.80;;;;;;4881649;28;278005;-71
2022/05/16 09:18:22;;;;;;;14.63;2.83;;;29.50;51.40;;;;;;4960116;28;20054;-70
2022/05/16 09:20:51;;;;;;;12.55;2.80;;;29.40;47.90;;;;;;4856394;28;241411;-71
2022/05/16 09:23:39;;;;;;;10.85;2.67;;;29.10;50.40;;;;;;4960724;28;20078;-75
2022/05/16 09:26:40;;;;;;;10.05;2.42;;;29.10;50.40;;;;;;4893176;28;206290;-71
2022/05/16 09:29:16;;;;;;;13.23;2.70;;;29.10;51.00;;;;;;4850894;29;215570;-72
2022/05/16 09:31:44;;;;;;;12.00;2.50;;;29.20;50.80;;;;;;4886734;29;20059;-74
2022/05/16 09:34:12;;;;;;;14.90;3.00;;;29.30;50.90;;;;;;4830473;29;205836;-72
2022/05/16 09:36:41;;;;;;;8.25;2.10;;;29.40;50.30;;;;;;4902788;29;20056;-72
2022/05/16 09:39:10;;;;;;;9.13;2.67;;;29.60;50.60;;;;;;4850204;29;225348;-71
2022/05/16 09:41:39;;;;;;;10.38;2.30;;;29.80;51.00;;;;;;4893973;29;20052;-72
2022/05/16 09:44:23;;;;;;;10.93;2.83;;;29.80;49.60;;;;;;4869774;28;254651;-75
2022/05/16 09:46:52;;;;;;;13.00;2.70;;;29.80;49.20;;;;;;4931663;29;20134;-73
2022/05/16 09:49:27;;;;;;;10.32;2.50;;;30.10;49.80;;;;;;4872502;28;212182;-71
2022/05/16 09:51:59;;;;;;;9.13;2.30;;;30.40;49.40;;;;;;4930408;29;20051;-72
2022/05/16 09:54:32;;;;;;;11.15;2.50;;;30.40;49.20;;;;;;4870026;28;211480;-75
2022/05/16 09:57:04;;;;;;;9.43;2.33;;;30.70;48.50;;;;;;4931044;29;20058;-72
2022/05/16 09:59:42;;;;;;;12.10;2.78;;;30.90;48.80;;;;;;4881252;28;209769;-72
2022/05/16 10:02:34;;;;;;;11.95;2.63;;;30.90;44.20;;;;;;4929532;29;20059;-73
2022/05/16 10:05:20;;;;;;;10.82;2.30;;;30.50;44.70;;;;;;4892750;28;206528;-71
2022/05/16 10:08:11;;;;;;;12.52;2.63;;;30.50;46.20;;;;;;5012857;28;20042;-75
2022/05/16 10:10:40;;;;;;;11.52;3.00;;;30.80;46.60;;;;;;4946633;28;209752;-73
2022/05/16 10:13:07;;;;;;;14.90;2.40;;;31.10;46.60;;;;;;5005016;28;20065;-72
2022/05/16 10:15:35;;;;;;;12.93;3.00;;;31.20;46.80;;;;;;4951753;28;213168;-74
2022/05/16 10:18:05;;;;;;;11.55;2.53;;;31.20;45.50;;;;;;5009318;28;20113;-71
2022/05/16 10:20:33;;;;;;;;;;;31.30;45.60;;;;;;4947169;28;236253;-71
2022/05/16 10:23:08;;;;;;;12.68;2.45;;;31.20;44.20;;;;;;5010631;28;19921;-71
2022/05/16 10:25:46;;;;;;;12.18;2.45;;;30.80;45.00;;;;;;4927231;28;221843;-71
2022/05/16 10:28:30;;;;;;;12.85;2.75;;;30.60;45.20;;;;;;5004640;28;20061;-72
2022/05/16 10:33:45;;;;;;;12.27;2.80;;;30.60;46.10;;;;;;4965359;28;219232;-71
2022/05/16 10:36:28;;;;;;;10.93;2.63;;;30.40;45.40;;;;;;4965150;28;210007;-70
2022/05/16 10:39:07;;;;;;;10.40;2.65;;;30.30;44.90;;;;;;4969294;28;213257;-71
2022/05/16 10:41:50;;;;;;;12.18;2.60;;;30.30;45.50;;;;;;4992217;28;20056;-74
2022/05/16 10:44:39;;;;;;;11.07;2.70;;;30.40;46.60;;;;;;4950608;28;216724;-72
2022/05/16 10:47:26;;;;;;;11.15;2.60;;;30.70;45.80;;;;;;5012366;28;20061;-73
2022/05/16 10:50:27;;;;;;;14.35;2.70;;;30.70;46.20;;;;;;4946585;28;222580;-71
2022/05/16 10:53:03;;;;;;;10.07;2.58;;;30.60;45.40;;;;;;4927179;29;20058;-71
2022/05/16 10:55:46;;;;;;;13.48;2.38;;;30.40;45.10;;;;;;4865114;28;213685;-72
2022/05/16 10:58:38;;;;;;;12.30;2.70;;;30.00;45.80;;;;;;4925064;29;20147;-71
2022/05/16 11:01:18;;;;;;;11.40;2.53;;;29.80;46.10;;;;;;4849493;29;243942;-73
2022/05/16 11:04:14;;;;;;;10.30;2.65;;;28.90;45.60;;;;;;4867393;29;206429;-71
2022/05/16 11:06:43;;;;;;;12.23;3.05;;;28.00;47.00;;;;;;4900302;29;119348;-71
2022/05/16 11:09:28;;;;;;;11.77;2.90;;;27.40;48.00;;;;;;4863001;29;252139;-73
2022/05/16 11:12:14;;;;;;;15.00;3.28;;;27.10;50.30;;;;;;4904174;29;20063;-72
2022/05/16 11:14:59;;;;;;;12.93;2.97;;;26.90;51.60;;;;;;4857740;29;210421;-74
2022/05/16 11:17:43;;;;;;;13.80;3.42;;;26.80;53.40;;;;;;4922130;29;20071;-71
2022/05/16 11:20:36;;;;;;;12.52;3.13;;;26.70;53.30;;;;;;4842002;29;208561;-71
2022/05/16 11:23:06;;;;;;;15.30;3.28;;;26.50;53.90;;;;;;4926432;29;20059;-73
2022/05/16 11:25:52;;;;;;;14.88;3.20;;;26.30;55.00;;;;;;4853198;29;221912;-71
2022/05/16 11:28:21;;;;;;;10.90;3.13;;;26.20;55.90;;;;;;4927829;28;215698;-70
2022/05/16 11:30:59;;;;;;;11.90;3.08;;;26.00;56.00;;;;;;4933791;28;239014;-70
2022/05/16 11:33:28;;;;;;;12.38;3.40;;;25.80;57.90;;;;;;4956279;28;258972;-71
2022/05/16 11:36:24;;;;;;;11.80;3.40;;;25.60;59.10;;;;;;4956855;28;78184;-74
2022/05/16 11:39:08;;;;;;;12.65;3.42;;;25.60;61.10;;;;;;4963034;28;206426;-70
2022/05/16 11:41:40;;;;;;;14.57;3.85;;;25.50;63.10;;;;;;4993310;28;20377;-70
2022/05/16 11:44:28;;;;;;;15.00;3.50;;;25.40;65.80;;;;;;4943606;28;220010;-71
2022/05/16 11:47:21;;;;;;;15.20;3.58;;;25.30;68.50;;;;;;5009565;28;20661;-71
2022/05/16 11:50:18;;;;;;;13.18;4.15;;;25.10;70.00;;;;;;4940331;28;211601;-72
2022/05/16 11:52:49;;;;;;;13.27;4.53;;;25.10;72.90;;;;;;5003339;28;20058;-75
2022/05/16 12:00:59;;;;;;;15.43;3.70;;;25.20;74.60;;;;;;4953294;28;137203;-72
2022/05/16 12:03:40;;;;;;;14.25;3.97;;;25.20;76.10;;;;;;4975267;28;209995;-71
2022/05/16 12:06:34;;;;;;;13.30;3.75;;;25.30;75.30;;;;;;4956106;28;252157;-72
2022/05/16 12:09:15;;;;;;;13.65;3.90;;;25.30;76.90;;;;;;4942724;28;227516;-73
2022/05/16 12:12:08;;;;;;;13.75;3.90;;;25.40;77.10;;;;;;5007978;28;20137;-72
2022/05/16 12:14:42;;;;;;;14.50;4.20;;;25.50;76.50;;;;;;4950256;28;209282;-74
2022/05/16 12:17:27;;;;;;;14.63;4.03;;;25.50;76.90;;;;;;5000473;28;20139;-72
2022/05/16 12:19:54;;;;;;;14.32;4.10;;;25.50;77.40;;;;;;4956285;28;162930;-72
2022/05/16 12:22:32;;;;;;;14.00;4.97;;;25.50;78.60;;;;;;4997408;28;20046;-73
2022/05/16 12:25:04;;;;;;;15.98;4.80;;;25.50;81.10;;;;;;4939748;28;214478;-71
2022/05/16 12:27:43;;;;;;;15.45;4.45;;;25.60;83.00;;;;;;5011410;28;20058;-71
2022/05/16 12:30:37;;;;;;;17.73;4.80;;;25.60;82.80;;;;;;4937102;28;212331;-70
2022/05/16 12:33:29;;;;;;;18.48;5.28;;;25.70;83.20;;;;;;5019408;28;20044;-73
2022/05/16 12:35:55;;;;;;;16.50;5.22;;;25.80;81.80;;;;;;4944970;28;279389;-70
2022/05/16 12:38:32;;;;;;;13.07;4.57;;;25.80;81.40;;;;;;4984194;28;207792;-72
2022/05/16 12:41:51;;;;;;;17.65;5.28;;;26.00;81.60;;;;;;4972700;28;215394;-72
2022/05/16 12:44:41;;;;;;;15.25;5.28;;;26.20;81.50;;;;;;4944361;28;234051;-72
2022/05/16 12:47:26;;;;;;;12.55;4.28;;;26.50;77.90;;;;;;5010894;28;20065;-74
2022/05/16 12:50:14;;;;;;;14.85;4.85;;;26.50;75.70;;;;;;4954779;28;208000;-71
2022/05/16 12:53:06;;;;;;;14.70;3.58;;;26.90;77.80;;;;;;5012863;28;20501;-72
2022/05/16 12:55:44;;;;;;;14.05;4.00;;;27.20;71.50;;;;;;4873999;28;252086;-73
2022/05/16 12:58:16;;;;;;;12.48;3.80;;;27.30;71.90;;;;;;4941999;28;20520;-71
2022/05/16 13:01:01;;;;;;;13.27;4.47;;;27.60;72.10;;;;;;4890718;28;206276;-72
2022/05/16 13:03:46;;;;;;;11.93;3.90;;;27.80;67.80;;;;;;4897589;28;192752;-72
2022/05/16 13:06:37;;;;;;;12.00;3.88;;;27.70;64.90;;;;;;4908956;28;218234;-71
2022/05/16 13:09:03;;;;;;;13.70;4.15;;;27.50;65.00;;;;;;4861942;28;242335;-72
2022/05/16 13:11:49;;;;;;;11.75;3.50;;;27.30;65.60;;;;;;4924013;28;20043;-72
2022/05/16 13:14:51;;;;;;;9.40;3.45;;;27.20;66.00;;;;;;4887285;28;204147;-72
2022/05/16 13:17:39;;;;;;;10.90;3.40;;;27.00;65.70;;;;;;4919571;28;20047;-72
2022/05/16 13:20:09;;;;;;;12.40;3.58;;;26.90;67.00;;;;;;4867982;28;205411;-71
2022/05/16 13:22:37;;;;;;;14.07;3.85;;;26.90;66.80;;;;;;4941424;28;20059;-72
2022/05/16 13:25:04;;;;;;;14.35;3.92;;;26.80;66.40;;;;;;4887302;28;210667;-71
2022/05/16 13:30:21;;;;;;;11.25;3.42;;;26.40;66.70;;;;;;4879444;28;219731;-71
2022/05/16 13:32:50;;;;;;;12.27;3.83;;;26.20;67.30;;;;;;4977293;28;20494;-71
2022/05/16 13:35:36;;;;;;;10.57;3.28;;;26.10;67.80;;;;;;4919620;28;238977;-70
2022/05/16 13:38:08;;;;;;;13.52;3.33;;;25.90;67.70;;;;;;5021226;28;20061;-72